Time;durP1;ratioP1;P1;durP2;ratioP2;P2;SDS_P1;SDS_P2;PMS_P1;PMS_P2;Temp;Humidity;BMP_temperature;BMP_pressure;BME280_temperature;BME280_humidity;BME280_pressure;Samples;Min_cycle;Max_cycle;Signal;HPM_P1;HPM_P2
2022/07/31 00:00:22;;;;;;;21.92;17.55;;;16.70;89.30;;;;;;5036389;28;20253;-88
2022/07/31 00:02:47;;;;;;;24.95;17.70;;;16.70;89.50;;;;;;5035918;28;20199;-88
2022/07/31 00:05:13;;;;;;;29.80;19.75;;;16.80;89.40;;;;;;5035862;28;20238;-88
2022/07/31 00:07:39;;;;;;;21.35;18.55;;;16.80;89.20;;;;;;5053549;28;20168;-88
2022/07/31 00:10:05;;;;;;;27.75;19.70;;;16.70;89.50;;;;;;5053507;28;20246;-88
2022/07/31 00:12:33;;;;;;;23.75;20.50;;;16.60;89.80;;;;;;5053462;28;20168;-88
2022/07/31 00:15:00;;;;;;;27.58;19.52;;;16.60;90.00;;;;;;5035657;28;20573;-89
2022/07/31 00:17:26;;;;;;;29.02;20.55;;;16.60;90.10;;;;;;5035675;28;20180;-88
2022/07/31 00:19:51;;;;;;;28.05;19.05;;;16.60;90.20;;;;;;5053350;28;20699;-88
2022/07/31 00:22:17;;;;;;;21.85;17.98;;;16.60;90.00;;;;;;5035546;28;20201;-88
2022/07/31 00:24:42;;;;;;;26.63;18.70;;;16.60;90.20;;;;;;5053141;28;20587;-88
2022/07/31 00:27:09;;;;;;;22.95;16.85;;;16.70;90.20;;;;;;5053634;28;20710;-88
2022/07/31 00:29:35;;;;;;;17.23;14.90;;;16.70;90.20;;;;;;5035522;28;20191;-88
2022/07/31 00:32:01;;;;;;;21.45;16.05;;;16.80;90.00;;;;;;5035384;28;20176;-88
2022/07/31 00:34:27;;;;;;;20.75;16.63;;;16.80;89.80;;;;;;5035208;28;20262;-88
2022/07/31 00:36:52;;;;;;;18.20;14.68;;;16.80;89.60;;;;;;5035344;28;20179;-88
2022/07/31 00:39:18;;;;;;;21.42;16.52;;;16.80;89.50;;;;;;5053200;28;20259;-88
2022/07/31 00:41:45;;;;;;;22.02;17.02;;;16.80;89.20;;;;;;5035380;28;20183;-88
2022/07/31 00:44:11;;;;;;;16.15;14.40;;;16.80;89.20;;;;;;5035237;28;20212;-88
2022/07/31 00:46:37;;;;;;;19.15;14.38;;;16.80;89.10;;;;;;5035417;28;20172;-89
2022/07/31 00:49:03;;;;;;;23.38;15.30;;;16.80;88.90;;;;;;5035329;28;20186;-88
2022/07/31 00:51:28;;;;;;;16.80;14.25;;;16.80;88.70;;;;;;5035357;28;20179;-88
2022/07/31 00:53:54;;;;;;;21.13;15.35;;;16.80;88.60;;;;;;5035242;28;20184;-88
2022/07/31 00:56:20;;;;;;;18.65;15.25;;;16.80;88.40;;;;;;5035500;28;20187;-89
2022/07/31 00:58:46;;;;;;;19.77;15.70;;;16.80;88.30;;;;;;5035506;28;20175;-88
2022/07/31 01:01:11;;;;;;;19.85;15.43;;;16.70;88.00;;;;;;5035714;28;20184;-89
2022/07/31 01:03:37;;;;;;;19.63;16.02;;;16.70;88.10;;;;;;5039154;28;20661;-89
2022/07/31 01:06:05;;;;;;;17.90;14.60;;;16.70;88.30;;;;;;5039683;28;20195;-89
2022/07/31 01:08:31;;;;;;;21.08;13.88;;;16.70;88.20;;;;;;5039172;28;20196;-89
2022/07/31 01:11:11;;;;;;;17.98;13.57;;;16.70;87.90;;;;;;5057007;28;20246;-87
2022/07/31 01:13:44;;;;;;;16.20;14.52;;;16.70;87.70;;;;;;5039051;28;20168;-86
2022/07/31 01:16:11;;;;;;;17.85;14.07;;;16.60;87.60;;;;;;5056862;28;20184;-87
2022/07/31 01:18:39;;;;;;;19.52;14.88;;;16.60;87.50;;;;;;5056794;28;20641;-87
2022/07/31 01:21:10;;;;;;;19.55;14.27;;;16.50;87.60;;;;;;5039127;28;20527;-87
2022/07/31 01:23:55;;;;;;;15.43;12.48;;;16.30;87.50;;;;;;5039112;28;20314;-87
2022/07/31 01:26:42;;;;;;;15.70;12.77;;;16.40;87.70;;;;;;5057087;28;20239;-87
2022/07/31 01:29:26;;;;;;;14.02;12.38;;;16.30;87.50;;;;;;5038734;28;20163;-87
2022/07/31 01:32:17;;;;;;;15.05;12.48;;;16.30;87.30;;;;;;5056598;28;20165;-87
2022/07/31 01:34:48;;;;;;;14.70;13.13;;;16.30;87.20;;;;;;5056338;28;20234;-87
2022/07/31 01:37:23;;;;;;;14.52;13.13;;;16.20;87.00;;;;;;5038589;28;20622;-87
2022/07/31 01:39:54;;;;;;;17.52;13.10;;;16.20;86.80;;;;;;5056411;28;20217;-87
2022/07/31 01:42:24;;;;;;;19.50;14.32;;;16.20;86.60;;;;;;5038537;28;20171;-87
2022/07/31 01:44:53;;;;;;;18.88;16.20;;;16.10;86.40;;;;;;5056591;28;20196;-87
2022/07/31 01:47:21;;;;;;;21.05;18.88;;;16.00;86.50;;;;;;5038408;28;20176;-87
2022/07/31 01:49:50;;;;;;;22.42;18.63;;;16.00;87.50;;;;;;5056229;28;20191;-87
2022/07/31 01:52:16;;;;;;;21.42;17.20;;;15.90;88.00;;;;;;5038281;28;20160;-87
2022/07/31 01:54:44;;;;;;;17.83;15.88;;;15.90;88.40;;;;;;5055999;28;20228;-87
2022/07/31 01:57:10;;;;;;;17.33;15.50;;;15.80;88.10;;;;;;5054840;28;20234;-87
2022/07/31 01:59:38;;;;;;;17.83;15.73;;;15.90;88.00;;;;;;5038156;28;20226;-87
2022/07/31 02:02:03;;;;;;;18.48;14.52;;;15.80;87.70;;;;;;5039172;28;20176;-87
2022/07/31 02:04:31;;;;;;;16.05;14.32;;;15.80;87.40;;;;;;5037841;28;20211;-87
2022/07/31 02:06:58;;;;;;;18.65;15.23;;;15.80;87.20;;;;;;5037975;28;20171;-87
2022/07/31 02:09:25;;;;;;;16.60;15.00;;;15.70;87.00;;;;;;5055759;28;20168;-87
2022/07/31 02:11:51;;;;;;;22.98;17.42;;;15.70;86.90;;;;;;5055532;28;20176;-87
2022/07/31 02:14:19;;;;;;;20.40;17.90;;;15.70;87.10;;;;;;5037975;28;20198;-87
2022/07/31 02:16:47;;;;;;;21.00;17.35;;;15.60;87.30;;;;;;5037980;28;20176;-87
2022/07/31 02:19:14;;;;;;;18.35;16.20;;;15.70;87.40;;;;;;5037887;28;20241;-87
2022/07/31 02:21:40;;;;;;;17.65;15.43;;;15.70;87.10;;;;;;5037749;28;20179;-87
2022/07/31 02:24:06;;;;;;;22.85;18.95;;;15.70;87.00;;;;;;5037505;28;20196;-87
2022/07/31 02:26:33;;;;;;;21.25;19.17;;;15.60;87.10;;;;;;5037641;28;20180;-87
2022/07/31 02:29:00;;;;;;;26.05;20.92;;;15.50;88.10;;;;;;5037930;28;20199;-87
2022/07/31 02:31:26;;;;;;;26.02;20.45;;;15.40;89.10;;;;;;5037573;28;20172;-87
2022/07/31 02:33:52;;;;;;;23.63;20.85;;;15.30;89.30;;;;;;5055171;28;20618;-87
2022/07/31 02:36:21;;;;;;;24.67;20.67;;;15.10;89.80;;;;;;5037455;28;20174;-87
2022/07/31 02:38:48;;;;;;;26.33;23.45;;;15.00;90.10;;;;;;5037508;28;20229;-87
2022/07/31 02:41:16;;;;;;;25.33;22.23;;;15.00;90.50;;;;;;5037453;28;20598;-87
2022/07/31 02:43:43;;;;;;;23.27;20.90;;;15.10;90.80;;;;;;5037486;28;20231;-87
2022/07/31 02:46:11;;;;;;;22.90;20.60;;;15.10;90.90;;;;;;5054987;28;20188;-87
2022/07/31 02:48:38;;;;;;;25.48;21.63;;;15.20;90.90;;;;;;5037614;28;20180;-87
2022/07/31 02:51:04;;;;;;;23.85;21.27;;;15.20;90.90;;;;;;5037111;28;20649;-87
2022/07/31 02:53:30;;;;;;;25.40;22.88;;;15.20;90.90;;;;;;5037134;28;20188;-87
2022/07/31 02:55:56;;;;;;;24.95;22.25;;;15.20;90.80;;;;;;5037066;28;20204;-87
2022/07/31 02:58:22;;;;;;;27.45;21.08;;;15.30;90.90;;;;;;5037067;28;20180;-87
2022/07/31 03:00:57;;;;;;;24.48;21.92;;;15.30;90.70;;;;;;5055194;28;20267;-87
2022/07/31 03:03:22;;;;;;;24.90;22.25;;;15.30;90.70;;;;;;5037817;28;20218;-87
2022/07/31 03:05:48;;;;;;;20.02;18.10;;;15.40;90.60;;;;;;5036845;28;20188;-87
2022/07/31 03:08:13;;;;;;;25.27;21.83;;;15.40;90.50;;;;;;5054699;28;20187;-87
2022/07/31 03:10:39;;;;;;;23.77;20.95;;;15.40;90.40;;;;;;5036882;28;20180;-87
2022/07/31 03:13:06;;;;;;;32.45;24.00;;;15.40;90.30;;;;;;5054571;28;20176;-86
2022/07/31 03:15:32;;;;;;;30.90;23.70;;;15.40;90.30;;;;;;5054462;28;20737;-86
2022/07/31 03:17:58;;;;;;;24.48;21.98;;;15.50;90.60;;;;;;5037319;28;20191;-87
2022/07/31 03:20:25;;;;;;;25.75;23.00;;;15.50;90.80;;;;;;5054461;28;20245;-86
2022/07/31 03:22:50;;;;;;;22.63;20.20;;;15.50;90.70;;;;;;5054413;28;20712;-87
2022/07/31 03:25:16;;;;;;;22.60;20.15;;;15.40;90.50;;;;;;5053632;28;20223;-87
2022/07/31 03:27:41;;;;;;;22.40;20.10;;;15.40;90.40;;;;;;5036568;28;20554;-87
2022/07/31 03:30:14;;;;;;;23.13;20.75;;;15.40;90.40;;;;;;5036479;28;20211;-86
2022/07/31 03:32:40;;;;;;;22.42;18.77;;;15.30;90.20;;;;;;5054253;28;20184;-87
2022/07/31 03:35:06;;;;;;;22.15;20.05;;;15.30;90.20;;;;;;5054014;28;20234;-87
2022/07/31 03:37:31;;;;;;;23.70;20.83;;;15.30;90.10;;;;;;5036340;28;20179;-86
2022/07/31 03:39:57;;;;;;;25.73;20.48;;;15.30;90.00;;;;;;5036258;28;20172;-87
2022/07/31 03:42:23;;;;;;;28.45;25.15;;;15.30;90.10;;;;;;5054027;28;20183;-87
2022/07/31 03:44:49;;;;;;;32.78;27.00;;;15.20;90.60;;;;;;5036091;28;20681;-87
2022/07/31 03:47:15;;;;;;;37.85;28.27;;;15.00;91.20;;;;;;5054212;28;20175;-87
2022/07/31 03:49:41;;;;;;;39.55;29.20;;;15.00;91.60;;;;;;5036063;28;20176;-87
2022/07/31 03:52:06;;;;;;;33.83;30.17;;;15.00;91.90;;;;;;5035943;28;20226;-87
2022/07/31 03:54:32;;;;;;;31.10;27.80;;;15.00;92.10;;;;;;5036482;28;20195;-87
2022/07/31 03:56:58;;;;;;;37.95;28.38;;;15.00;92.30;;;;;;5053772;28;20172;-87
2022/07/31 03:59:26;;;;;;;33.00;27.00;;;15.10;92.40;;;;;;5035877;28;20178;-87
2022/07/31 04:01:52;;;;;;;30.83;25.63;;;15.20;92.40;;;;;;5053666;28;20172;-87
2022/07/31 04:04:17;;;;;;;28.50;23.52;;;15.20;92.30;;;;;;5035831;28;20231;-87
2022/07/31 04:06:43;;;;;;;31.63;26.23;;;15.20;92.30;;;;;;5036153;28;20203;-87
2022/07/31 04:09:09;;;;;;;33.70;27.40;;;15.30;92.20;;;;;;5053583;28;20182;-87
2022/07/31 04:11:34;;;;;;;28.15;24.88;;;15.30;92.10;;;;;;5035761;28;20198;-87
2022/07/31 04:14:00;;;;;;;32.67;23.75;;;15.50;92.10;;;;;;5035583;28;20550;-87
2022/07/31 04:16:25;;;;;;;29.17;25.45;;;15.60;92.00;;;;;;5036117;28;20175;-87
2022/07/31 04:18:51;;;;;;;27.77;24.88;;;15.70;91.80;;;;;;5035674;28;20710;-87
2022/07/31 04:21:16;;;;;;;34.10;25.42;;;15.70;91.70;;;;;;5053406;28;20195;-87
2022/07/31 04:23:42;;;;;;;28.33;24.05;;;15.80;91.50;;;;;;5035485;28;20227;-87
2022/07/31 04:26:07;;;;;;;31.95;25.95;;;15.90;91.20;;;;;;5035487;28;20246;-87
2022/07/31 04:28:33;;;;;;;27.67;23.00;;;16.00;91.00;;;;;;5035544;28;20176;-87
2022/07/31 04:30:59;;;;;;;26.00;23.40;;;15.90;91.00;;;;;;5035427;28;20641;-87
2022/07/31 04:33:25;;;;;;;27.40;24.60;;;15.90;91.00;;;;;;5053246;28;20176;-87
2022/07/31 04:35:51;;;;;;;31.10;24.95;;;15.90;91.00;;;;;;5035197;28;20697;-87
2022/07/31 04:38:17;;;;;;;30.52;24.98;;;16.00;91.10;;;;;;5035376;28;20180;-87
2022/07/31 04:40:43;;;;;;;32.28;26.50;;;15.90;91.10;;;;;;5035391;28;20172;-87
2022/07/31 04:43:09;;;;;;;29.60;25.98;;;16.00;91.20;;;;;;5035190;28;20231;-87
2022/07/31 04:45:34;;;;;;;32.22;28.15;;;16.00;91.20;;;;;;5053043;28;20231;-87
2022/07/31 04:48:00;;;;;;;34.33;29.20;;;16.10;91.30;;;;;;5052994;28;20164;-87
2022/07/31 04:50:26;;;;;;;36.30;30.60;;;16.10;91.50;;;;;;5053035;28;20179;-87
2022/07/31 04:52:51;;;;;;;42.08;30.85;;;16.10;91.70;;;;;;5035321;28;20725;-87
2022/07/31 04:55:17;;;;;;;41.20;33.10;;;16.10;91.90;;;;;;5035094;28;20196;-87
2022/07/31 04:57:42;;;;;;;42.17;33.15;;;16.10;92.20;;;;;;5035518;28;20203;-87
2022/07/31 05:00:09;;;;;;;42.80;33.13;;;16.10;92.40;;;;;;5052959;28;20198;-87
2022/07/31 05:02:35;;;;;;;43.78;34.05;;;16.10;92.50;;;;;;5035083;28;20180;-87
2022/07/31 05:05:01;;;;;;;43.35;34.60;;;16.10;92.70;;;;;;5052869;28;20196;-87
2022/07/31 05:07:27;;;;;;;45.67;35.50;;;16.20;92.80;;;;;;5052923;28;20164;-87
2022/07/31 05:09:53;;;;;;;42.15;33.80;;;16.20;92.90;;;;;;5035116;28;20318;-87
2022/07/31 05:12:18;;;;;;;44.28;36.97;;;16.20;92.90;;;;;;5035032;28;20543;-87
2022/07/31 05:14:44;;;;;;;47.17;34.40;;;16.30;92.90;;;;;;5034989;28;20198;-87
2022/07/31 05:17:09;;;;;;;41.63;36.10;;;16.30;92.90;;;;;;5035013;28;20190;-87
2022/07/31 05:19:35;;;;;;;49.35;36.38;;;16.30;92.90;;;;;;5052764;28;20184;-87
2022/07/31 05:22:01;;;;;;;42.80;36.45;;;16.30;93.00;;;;;;5034930;28;20592;-87
2022/07/31 05:24:26;;;;;;;43.55;33.90;;;16.40;93.00;;;;;;5052839;28;20208;-87
2022/07/31 05:26:52;;;;;;;46.13;35.42;;;16.50;93.10;;;;;;5034977;28;20217;-87
2022/07/31 05:29:17;;;;;;;40.40;36.03;;;16.60;93.00;;;;;;5034972;28;20172;-87
2022/07/31 05:31:43;;;;;;;43.65;34.20;;;16.60;93.00;;;;;;5034876;28;20164;-87
2022/07/31 05:34:09;;;;;;;43.30;34.53;;;16.60;92.90;;;;;;5052674;28;20666;-87
2022/07/31 05:36:34;;;;;;;42.03;33.92;;;16.60;92.90;;;;;;5052636;28;20177;-87
2022/07/31 05:39:00;;;;;;;42.17;32.75;;;16.70;92.70;;;;;;5034777;28;20180;-87
2022/07/31 05:41:26;;;;;;;45.92;34.10;;;16.70;92.70;;;;;;5034669;28;20180;-87
2022/07/31 05:43:51;;;;;;;45.38;33.10;;;16.70;92.60;;;;;;5052687;28;20689;-87
2022/07/31 05:46:17;;;;;;;41.30;32.33;;;16.80;92.50;;;;;;5052520;28;20226;-87
2022/07/31 05:48:43;;;;;;;42.17;33.35;;;16.80;92.30;;;;;;5055297;28;20172;-87
2022/07/31 05:51:10;;;;;;;41.20;33.33;;;16.90;92.30;;;;;;5038293;28;20246;-87
2022/07/31 05:53:37;;;;;;;43.28;30.67;;;17.00;92.30;;;;;;5056565;28;20634;-87
2022/07/31 05:56:04;;;;;;;42.38;30.85;;;16.90;91.90;;;;;;5038161;28;20590;-87
2022/07/31 05:58:29;;;;;;;33.17;29.05;;;16.90;91.70;;;;;;5056182;28;20168;-87
2022/07/31 06:00:55;;;;;;;36.92;28.92;;;16.90;91.50;;;;;;5038097;28;20187;-86
2022/07/31 06:03:26;;;;;;;34.70;28.55;;;17.00;91.40;;;;;;5038060;28;20233;-87
2022/07/31 06:05:52;;;;;;;33.60;26.83;;;17.20;91.40;;;;;;5037967;28;20689;-86
2022/07/31 06:08:18;;;;;;;28.70;25.30;;;17.20;91.20;;;;;;5055794;28;20175;-87
2022/07/31 06:10:44;;;;;;;34.60;23.70;;;17.20;91.20;;;;;;5037860;28;20176;-87
2022/07/31 06:13:10;;;;;;;30.50;24.40;;;17.30;91.00;;;;;;5038067;28;20673;-87
2022/07/31 06:15:36;;;;;;;29.52;23.13;;;17.40;90.70;;;;;;5038051;28;20689;-86
2022/07/31 06:18:02;;;;;;;28.67;21.55;;;17.40;90.40;;;;;;5037879;28;20176;-87
2022/07/31 06:20:28;;;;;;;23.88;18.77;;;17.50;90.40;;;;;;5037768;28;20184;-87
2022/07/31 06:22:54;;;;;;;23.63;18.60;;;17.60;89.90;;;;;;5037575;28;20214;-87
2022/07/31 06:25:20;;;;;;;23.45;16.60;;;17.70;89.60;;;;;;5037566;28;20575;-87
2022/07/31 06:27:45;;;;;;;25.20;16.13;;;17.70;89.20;;;;;;5037671;28;20267;-87
2022/07/31 06:30:12;;;;;;;20.65;14.23;;;17.80;88.90;;;;;;5055507;28;20234;-87
2022/07/31 06:32:38;;;;;;;16.20;14.50;;;17.80;88.50;;;;;;5055344;28;20544;-87
2022/07/31 06:35:04;;;;;;;13.77;12.02;;;17.80;88.00;;;;;;5037308;28;20211;-87
2022/07/31 06:37:30;;;;;;;13.95;11.68;;;17.80;87.20;;;;;;5055311;28;20251;-87
2022/07/31 06:39:56;;;;;;;17.40;10.70;;;17.90;87.20;;;;;;5037254;28;20206;-87
2022/07/31 06:42:22;;;;;;;12.23;9.02;;;17.90;86.40;;;;;;5037468;28;20630;-87
2022/07/31 06:44:48;;;;;;;12.52;8.73;;;18.00;86.20;;;;;;5037125;28;20219;-87
2022/07/31 06:47:14;;;;;;;12.00;8.15;;;18.00;85.50;;;;;;5037322;28;20172;-87
2022/07/31 06:49:40;;;;;;;7.70;6.13;;;18.10;85.40;;;;;;5037215;28;20180;-87
2022/07/31 06:52:06;;;;;;;10.48;6.43;;;18.00;83.50;;;;;;5055224;28;20175;-87
2022/07/31 06:54:32;;;;;;;7.90;5.00;;;18.00;83.20;;;;;;5037191;28;20291;-87
2022/07/31 06:56:57;;;;;;;7.60;5.03;;;17.90;81.70;;;;;;5037134;28;20245;-87
2022/07/31 06:59:23;;;;;;;8.27;5.50;;;18.00;81.70;;;;;;5036332;28;20180;-87
2022/07/31 07:01:48;;;;;;;8.23;5.70;;;18.00;82.30;;;;;;5055030;28;20172;-86
2022/07/31 07:04:14;;;;;;;5.65;5.00;;;18.20;82.60;;;;;;5037756;28;20211;-87
2022/07/31 07:06:39;;;;;;;6.50;4.93;;;18.20;82.20;;;;;;5054836;28;20180;-87
2022/07/31 07:09:05;;;;;;;10.52;5.45;;;18.20;80.60;;;;;;5036933;28;20204;-87
2022/07/31 07:11:31;;;;;;;8.57;5.55;;;18.20;80.80;;;;;;5036792;28;20176;-87
2022/07/31 07:13:56;;;;;;;7.75;5.93;;;18.40;81.80;;;;;;5055126;28;20175;-86
2022/07/31 07:16:22;;;;;;;8.10;5.00;;;18.40;81.40;;;;;;5039023;28;20176;-87
2022/07/31 07:18:47;;;;;;;8.60;4.25;;;18.40;80.60;;;;;;5057013;28;20254;-87
2022/07/31 07:21:14;;;;;;;7.55;4.35;;;18.40;79.30;;;;;;5038421;28;20275;-86
2022/07/31 07:23:40;;;;;;;8.73;4.05;;;18.50;79.30;;;;;;5056053;28;20700;-86
2022/07/31 07:26:06;;;;;;;9.82;4.88;;;18.50;77.10;;;;;;5036444;28;20192;-87
2022/07/31 07:28:33;;;;;;;7.60;5.00;;;18.50;76.10;;;;;;5036475;28;20202;-86
2022/07/31 07:30:58;;;;;;;6.53;4.10;;;18.70;77.00;;;;;;5054330;28;20183;-86
2022/07/31 07:33:24;;;;;;;6.65;3.40;;;18.60;75.20;;;;;;5054369;28;20176;-87
2022/07/31 07:35:50;;;;;;;7.15;3.28;;;18.70;74.00;;;;;;5053957;28;20242;-87
2022/07/31 07:38:15;;;;;;;8.73;3.40;;;18.80;73.10;;;;;;5054109;28;20184;-86
2022/07/31 07:40:41;;;;;;;5.03;2.42;;;18.80;73.00;;;;;;5036231;28;20547;-87
2022/07/31 07:43:08;;;;;;;5.50;2.38;;;18.90;69.70;;;;;;5036115;28;20204;-87
2022/07/31 07:45:33;;;;;;;6.18;2.15;;;18.90;71.10;;;;;;5036120;28;20238;-86
2022/07/31 07:47:59;;;;;;;4.65;2.00;;;19.10;70.10;;;;;;5036275;28;20542;-87
2022/07/31 07:50:24;;;;;;;6.57;1.92;;;19.20;69.80;;;;;;5036159;28;20618;-87
2022/07/31 07:52:50;;;;;;;6.18;1.95;;;19.20;67.70;;;;;;5036453;28;20179;-86
2022/07/31 07:55:15;;;;;;;3.63;1.98;;;19.30;67.50;;;;;;5036561;28;20192;-86
2022/07/31 07:57:43;;;;;;;4.18;2.08;;;19.30;68.00;;;;;;5055284;28;20172;-86
2022/07/31 08:00:10;;;;;;;6.28;2.10;;;19.40;66.90;;;;;;5037145;28;20560;-86
2022/07/31 08:02:36;;;;;;;5.80;2.20;;;19.40;67.00;;;;;;5053953;28;20314;-87
2022/07/31 08:05:02;;;;;;;4.72;2.20;;;19.50;67.50;;;;;;5053845;28;20227;-87
2022/07/31 08:07:29;;;;;;;4.38;1.90;;;19.60;68.10;;;;;;5036654;28;20634;-86
2022/07/31 08:09:58;;;;;;;3.20;1.95;;;19.70;68.70;;;;;;5036006;28;20559;-86
2022/07/31 08:12:25;;;;;;;4.50;1.92;;;19.70;67.50;;;;;;5053687;28;20168;-87
2022/07/31 08:14:50;;;;;;;7.63;2.60;;;19.70;67.60;;;;;;5035911;28;20662;-87
2022/07/31 08:17:16;;;;;;;4.70;2.25;;;19.70;68.20;;;;;;5035667;28;20176;-87
2022/07/31 08:19:42;;;;;;;3.10;2.30;;;19.70;67.90;;;;;;5037233;28;20169;-86
2022/07/31 08:22:08;;;;;;;5.80;2.53;;;19.70;68.70;;;;;;5036466;28;20250;-86
2022/07/31 08:24:34;;;;;;;7.32;2.60;;;19.70;68.70;;;;;;5035739;28;20207;-86
2022/07/31 08:29:46;;;;;;;4.53;2.28;;;19.70;67.90;;;;;;5055147;28;20199;-86
2022/07/31 08:32:12;;;;;;;6.32;2.70;;;19.70;69.20;;;;;;5054734;28;20225;-86
2022/07/31 08:34:38;;;;;;;4.43;2.20;;;19.60;69.60;;;;;;5036296;28;20215;-86
2022/07/31 08:37:05;;;;;;;4.68;2.42;;;19.60;68.80;;;;;;5037409;28;20527;-86
2022/07/31 08:39:31;;;;;;;3.85;2.20;;;19.60;68.70;;;;;;5055256;28;20255;-86
2022/07/31 08:41:57;;;;;;;4.90;2.60;;;19.70;69.50;;;;;;5035333;28;20172;-87
2022/07/31 08:44:23;;;;;;;4.20;2.47;;;19.90;71.00;;;;;;5052925;28;20208;-87
2022/07/31 08:46:51;;;;;;;5.05;2.45;;;20.00;70.70;;;;;;5053157;28;20172;-87
2022/07/31 08:49:18;;;;;;;7.75;3.60;;;20.00;69.60;;;;;;5035298;28;20176;-87
2022/07/31 08:51:44;;;;;;;6.80;3.22;;;20.10;69.30;;;;;;5035361;28;20183;-87
2022/07/31 08:54:10;;;;;;;4.75;2.60;;;20.10;69.30;;;;;;5035168;28;20176;-87
2022/07/31 08:56:37;;;;;;;5.03;3.08;;;20.30;69.90;;;;;;5053060;28;20180;-88
2022/07/31 08:59:04;;;;;;;5.28;3.22;;;20.40;69.40;;;;;;5035209;28;20179;-87
2022/07/31 09:01:32;;;;;;;6.57;2.80;;;20.50;69.60;;;;;;5035182;28;20180;-87
2022/07/31 09:03:58;;;;;;;3.38;2.67;;;20.60;69.50;;;;;;5052809;28;20235;-87
2022/07/31 09:06:24;;;;;;;5.95;2.80;;;20.70;70.00;;;;;;5052874;28;20172;-87
2022/07/31 09:08:50;;;;;;;6.70;2.90;;;20.90;68.20;;;;;;5053238;28;20175;-87
2022/07/31 09:11:15;;;;;;;5.63;3.28;;;21.00;67.90;;;;;;5036424;28;20168;-87
2022/07/31 09:14:00;;;;;;;11.90;4.32;;;21.20;67.20;;;;;;5053104;28;20183;-87
2022/07/31 09:16:26;;;;;;;7.72;3.22;;;21.20;66.20;;;;;;5035096;28;20187;-87
2022/07/31 09:19:03;;;;;;;5.45;3.17;;;21.10;66.90;;;;;;5035004;28;20180;-87
2022/07/31 09:21:45;;;;;;;6.45;3.53;;;21.10;67.40;;;;;;5053031;28;20184;-87
2022/07/31 09:24:12;;;;;;;7.25;3.13;;;21.10;67.70;;;;;;5038588;28;20216;-87
2022/07/31 09:26:43;;;;;;;4.00;2.50;;;21.20;66.10;;;;;;5038810;28;20183;-87
2022/07/31 09:29:11;;;;;;;5.15;2.67;;;21.60;67.60;;;;;;5038835;28;20586;-87
2022/07/31 09:31:37;;;;;;;9.40;3.33;;;21.70;66.70;;;;;;5038754;28;20172;-87
2022/07/31 09:34:04;;;;;;;10.73;2.70;;;21.70;67.40;;;;;;5056502;28;20191;-88
2022/07/31 09:36:30;;;;;;;6.20;3.13;;;21.90;67.00;;;;;;5038721;28;20172;-88
2022/07/31 09:38:56;;;;;;;4.03;3.00;;;21.90;65.70;;;;;;5038560;28;20180;-88
2022/07/31 09:41:22;;;;;;;3.97;2.65;;;22.00;65.10;;;;;;5038765;28;20226;-88
2022/07/31 09:44:02;;;;;;;6.10;2.72;;;22.20;66.90;;;;;;5038438;28;20223;-89
2022/07/31 09:46:41;;;;;;;5.57;2.78;;;22.70;65.80;;;;;;5038523;28;20170;-89
2022/07/31 09:49:07;;;;;;;10.90;2.80;;;22.90;64.50;;;;;;5038491;28;20675;-88
2022/07/31 09:51:43;;;;;;;4.30;2.67;;;22.90;63.10;;;;;;5056347;28;20199;-88
2022/07/31 09:54:24;;;;;;;10.30;3.42;;;23.10;63.10;;;;;;5038387;28;20186;-88
2022/07/31 09:56:49;;;;;;;4.57;3.08;;;23.00;63.40;;;;;;5056180;28;20668;-88
2022/07/31 09:59:15;;;;;;;8.15;3.33;;;22.70;63.60;;;;;;5056103;28;20270;-88
2022/07/31 10:01:44;;;;;;;6.45;3.13;;;22.90;64.20;;;;;;5056019;28;20183;-87
2022/07/31 10:04:10;;;;;;;6.50;2.85;;;22.90;65.00;;;;;;5038148;28;20230;-87
2022/07/31 10:06:37;;;;;;;8.60;3.53;;;23.10;64.40;;;;;;5038749;28;20733;-88
2022/07/31 10:09:05;;;;;;;9.98;3.47;;;23.10;62.40;;;;;;5055828;28;20168;-88
2022/07/31 10:11:31;;;;;;;7.00;3.08;;;22.80;63.50;;;;;;5038001;28;20245;-88
2022/07/31 10:14:01;;;;;;;6.55;3.30;;;22.70;65.00;;;;;;5038665;28;20202;-88
2022/07/31 10:16:31;;;;;;;7.13;2.85;;;22.80;65.40;;;;;;5038272;28;20187;-86
2022/07/31 10:18:59;;;;;;;13.90;3.58;;;22.80;65.30;;;;;;5056956;28;20184;-88
2022/07/31 10:21:32;;;;;;;7.75;3.05;;;23.10;63.50;;;;;;5056877;28;20255;-86
2022/07/31 10:24:01;;;;;;;9.68;2.50;;;23.20;63.50;;;;;;5055675;28;20203;-87
2022/07/31 10:26:28;;;;;;;6.93;2.83;;;23.50;64.30;;;;;;5037789;28;20176;-87
2022/07/31 10:28:54;;;;;;;4.63;2.67;;;23.60;63.30;;;;;;5037791;28;20172;-87
2022/07/31 10:31:19;;;;;;;6.28;2.80;;;23.60;62.50;;;;;;5055541;28;20546;-86
2022/07/31 10:33:46;;;;;;;7.78;2.13;;;23.70;62.80;;;;;;5055260;28;20173;-87
2022/07/31 10:36:20;;;;;;;7.13;2.70;;;24.00;62.20;;;;;;5037880;28;20211;-87
2022/07/31 10:39:04;;;;;;;8.48;3.05;;;23.90;60.50;;;;;;5055971;28;20199;-87
2022/07/31 10:42:05;;;;;;;6.10;2.63;;;23.70;60.90;;;;;;5055938;28;20164;-87
2022/07/31 10:44:53;;;;;;;5.65;2.42;;;23.50;60.40;;;;;;5024994;28;20620;-88
2022/07/31 10:47:19;;;;;;;7.45;3.30;;;23.30;60.90;;;;;;5027401;28;20282;-87
2022/07/31 10:49:47;;;;;;;3.63;2.55;;;23.30;61.50;;;;;;5038077;28;20205;-88
2022/07/31 10:52:14;;;;;;;4.72;2.95;;;23.30;61.60;;;;;;5037730;28;20176;-88
2022/07/31 10:54:46;;;;;;;5.97;2.78;;;23.30;61.10;;;;;;5037565;28;20199;-88
2022/07/31 10:57:26;;;;;;;6.68;2.90;;;23.40;61.20;;;;;;5037468;28;20540;-88
2022/07/31 10:59:52;;;;;;;6.35;3.00;;;23.60;61.30;;;;;;5037541;28;20167;-88
2022/07/31 11:02:33;;;;;;;12.07;2.83;;;23.80;60.70;;;;;;5037496;28;20175;-88
2022/07/31 11:05:12;;;;;;;5.68;2.50;;;23.80;61.00;;;;;;5036932;28;20208;-88
2022/07/31 11:07:41;;;;;;;5.68;2.20;;;24.00;60.30;;;;;;5037135;28;20591;-88
2022/07/31 11:10:25;;;;;;;6.60;2.40;;;23.80;59.50;;;;;;5037521;28;20168;-88
2022/07/31 11:13:03;;;;;;;4.85;2.30;;;23.90;58.10;;;;;;5037877;28;20172;-88
2022/07/31 11:15:30;;;;;;;6.00;2.55;;;24.00;59.80;;;;;;5037166;28;20192;-88
2022/07/31 11:17:55;;;;;;;5.93;2.45;;;24.10;59.20;;;;;;5038514;28;20556;-88
2022/07/31 11:20:27;;;;;;;3.53;2.10;;;24.30;58.70;;;;;;5037151;28;20168;-88
2022/07/31 11:22:57;;;;;;;5.95;2.60;;;24.30;57.20;;;;;;5037423;28;20179;-89
2022/07/31 11:25:24;;;;;;;5.38;2.28;;;24.30;56.90;;;;;;5038232;28;20254;-88
2022/07/31 11:27:50;;;;;;;5.22;2.58;;;24.20;56.80;;;;;;5037563;28;20172;-88
2022/07/31 11:30:16;;;;;;;4.60;1.73;;;24.30;56.90;;;;;;5038575;28;20180;-89
2022/07/31 11:32:50;;;;;;;9.82;2.10;;;24.50;56.70;;;;;;5037858;28;20662;-88
2022/07/31 11:35:27;;;;;;;6.03;2.10;;;24.60;58.30;;;;;;5037658;28;20572;-89
2022/07/31 11:37:53;;;;;;;3.75;2.10;;;24.70;55.90;;;;;;5037824;28;20237;-89
2022/07/31 11:40:19;;;;;;;4.18;1.67;;;24.70;56.00;;;;;;5037978;28;20168;-89
2022/07/31 11:42:45;;;;;;;4.32;1.98;;;24.70;56.40;;;;;;5037356;28;20268;-89
2022/07/31 11:45:13;;;;;;;5.22;2.42;;;24.70;57.00;;;;;;5036907;28;20253;-89
2022/07/31 11:47:43;;;;;;;5.63;2.00;;;24.80;56.60;;;;;;5037773;28;20230;-88
2022/07/31 11:50:09;;;;;;;7.65;2.40;;;24.70;55.20;;;;;;5055905;28;20642;-88
2022/07/31 11:52:36;;;;;;;8.60;2.55;;;24.70;55.50;;;;;;5036953;28;20206;-88
2022/07/31 11:55:07;;;;;;;7.38;2.30;;;24.70;54.60;;;;;;5036409;28;20229;-88
2022/07/31 11:57:33;;;;;;;7.10;1.90;;;24.90;55.80;;;;;;5054195;28;20183;-88
2022/07/31 12:00:06;;;;;;;3.70;1.83;;;25.00;55.80;;;;;;5036216;28;20180;-88
2022/07/31 12:02:31;;;;;;;4.78;2.30;;;25.10;55.10;;;;;;5054138;28;20188;-88
2022/07/31 12:05:02;;;;;;;5.28;2.25;;;25.20;55.50;;;;;;5036273;28;20680;-88
2022/07/31 12:07:28;;;;;;;4.18;2.05;;;25.30;53.90;;;;;;5036628;28;20184;-88
2022/07/31 12:09:54;;;;;;;3.83;2.03;;;25.30;55.00;;;;;;5036613;28;20172;-88
2022/07/31 12:12:20;;;;;;;5.10;2.17;;;25.30;55.10;;;;;;5036826;28;20251;-88
2022/07/31 12:14:45;;;;;;;7.57;1.67;;;25.50;54.10;;;;;;5054068;28;20606;-89
2022/07/31 12:17:20;;;;;;;2.97;1.80;;;25.60;54.40;;;;;;5036227;28;20178;-89
2022/07/31 12:19:45;;;;;;;9.82;2.30;;;25.70;54.40;;;;;;5054167;28;20195;-88
2022/07/31 12:22:19;;;;;;;5.85;1.77;;;25.80;53.20;;;;;;5054342;28;20646;-88
2022/07/31 12:24:46;;;;;;;7.78;2.05;;;25.90;50.60;;;;;;5036260;28;20207;-88
2022/07/31 12:27:17;;;;;;;5.57;2.00;;;25.60;53.90;;;;;;5036267;28;20182;-88
2022/07/31 12:29:42;;;;;;;7.75;2.03;;;25.70;52.30;;;;;;5036146;28;20180;-88
2022/07/31 12:32:08;;;;;;;8.73;2.00;;;25.60;52.00;;;;;;5036125;28;20172;-88
2022/07/31 12:34:35;;;;;;;4.53;1.90;;;25.20;53.90;;;;;;5036305;28;20215;-88
2022/07/31 12:37:05;;;;;;;4.88;2.13;;;25.20;53.70;;;;;;5036213;28;20182;-89
2022/07/31 12:39:33;;;;;;;5.20;2.15;;;25.10;54.60;;;;;;5037038;28;20179;-88